Time;durP1;ratioP1;P1;durP2;ratioP2;P2;SDS_P1;SDS_P2;PMS_P1;PMS_P2;Temp;Humidity;BMP_temperature;BMP_pressure;BME280_temperature;BME280_humidity;BME280_pressure;Samples;Min_cycle;Max_cycle;Signal;HPM_P1;HPM_P2
2023/09/16 00:00:08;;;;;;;12.30;10.95;;;;;;;-145.63;49.99;39127.91;5018017;28;20295;-65
2023/09/16 00:02:35;;;;;;;12.90;10.70;;;;;;;-145.63;49.91;39135.72;5008004;28;20061;-65
2023/09/16 00:05:01;;;;;;;11.00;9.88;;;;;;;-145.63;49.97;39129.84;5024640;28;20040;-66
2023/09/16 00:07:27;;;;;;;13.10;10.35;;;;;;;-145.63;49.98;38903.00;5042437;28;20029;-65
2023/09/16 00:09:56;;;;;;;14.73;10.93;;;;;;;-145.63;50.07;39125.94;5029762;28;20036;-65
2023/09/16 00:12:24;;;;;;;10.75;9.65;;;;;;;-145.63;50.02;39131.81;5024079;28;20026;-65
2023/09/16 00:14:49;;;;;;;11.10;9.88;;;;;;;-145.63;50.17;39112.25;5024727;28;20047;-65
2023/09/16 00:17:15;;;;;;;11.68;9.90;;;;;;;-145.63;50.30;39145.50;5023599;28;20318;-63
2023/09/16 00:19:41;;;;;;;12.13;10.93;;;;;;;-145.63;50.39;39135.72;5011974;28;20030;-65
2023/09/16 00:22:10;;;;;;;13.82;10.40;;;;;;;-145.63;50.78;39114.22;5008770;28;20123;-65
2023/09/16 00:24:40;;;;;;;11.23;10.15;;;;;;;-145.63;50.30;39110.28;5016001;28;20299;-65
2023/09/16 00:27:09;;;;;;;12.25;11.05;;;;;;;-145.63;50.45;39086.81;5023895;28;20057;-65
2023/09/16 00:29:35;;;;;;;12.30;10.98;;;;;;;-145.63;50.52;39145.50;5033584;28;20206;-65
2023/09/16 00:32:06;;;;;;;11.75;10.55;;;;;;;-145.63;50.51;39094.66;5024248;28;20106;-64
2023/09/16 00:34:32;;;;;;;13.82;10.98;;;;;;;-145.63;50.40;38946.03;5023908;28;20021;-66
2023/09/16 00:36:58;;;;;;;12.30;10.98;;;;;;;-145.63;50.40;39106.38;5009677;28;20326;-66
2023/09/16 00:39:25;;;;;;;12.10;10.02;;;;;;;-145.63;50.63;39114.22;5004544;28;20033;-66
2023/09/16 00:41:51;;;;;;;12.10;10.73;;;;;;;-145.63;50.74;39149.41;5021640;28;20021;-65
2023/09/16 00:44:16;;;;;;;11.63;10.35;;;;;;;-145.63;50.70;39110.28;5023467;28;20286;-65
2023/09/16 00:46:42;;;;;;;13.20;11.00;;;;;;;-145.63;50.78;39122.03;5021433;28;20021;-65
2023/09/16 00:49:09;;;;;;;11.48;10.10;;;;;;;-145.63;50.73;39155.28;5022627;28;20061;-65
2023/09/16 00:51:35;;;;;;;12.27;11.02;;;;;;;-145.63;51.09;39116.16;5023704;28;20053;-65
2023/09/16 00:54:01;;;;;;;14.20;12.70;;;;;;;-145.63;51.04;39143.53;5023718;28;20040;-65
2023/09/16 00:56:29;;;;;;;13.90;12.45;;;;;;;-145.63;51.18;39086.81;5023613;28;20038;-65
2023/09/16 00:58:58;;;;;;;15.13;12.13;;;;;;;-145.63;51.05;38996.88;5023622;28;20053;-65
2023/09/16 01:01:25;;;;;;;16.77;13.70;;;;;;;-145.63;51.22;39161.13;5004939;28;20030;-65
2023/09/16 01:03:52;;;;;;;14.13;12.82;;;;;;;-145.63;51.25;39120.06;5016647;28;20026;-66
2023/09/16 01:06:18;;;;;;;16.83;14.57;;;;;;;-145.63;51.77;39118.13;5026144;28;20029;-66
2023/09/16 01:08:44;;;;;;;17.13;14.10;;;;;;;-145.63;51.37;39098.56;5019604;28;20072;-67
2023/09/16 01:11:11;;;;;;;14.93;13.48;;;;;;;-145.63;51.79;39122.03;5003980;28;20303;-65
2023/09/16 01:13:38;;;;;;;15.90;14.15;;;;;;;-145.63;51.60;39112.25;5021303;28;20184;-65
2023/09/16 01:16:04;;;;;;;14.30;12.90;;;;;;;-145.63;52.00;39098.56;5023331;28;20026;-65
2023/09/16 01:18:38;;;;;;;14.63;12.95;;;;;;;-145.63;52.38;39127.91;5015429;28;20060;-66
2023/09/16 01:21:07;;;;;;;15.85;13.90;;;;;;;-145.63;52.43;39149.41;5016201;28;20042;-66
2023/09/16 01:23:32;;;;;;;16.17;14.43;;;;;;;-145.63;52.27;39137.69;5021114;28;20091;-66
2023/09/16 01:25:58;;;;;;;17.00;13.80;;;;;;;-145.63;52.22;39143.53;5016058;28;20049;-66
2023/09/16 01:28:25;;;;;;;14.93;13.32;;;;;;;-145.63;52.14;39118.13;5025495;28;20045;-65
2023/09/16 01:30:55;;;;;;;18.35;15.82;;;;;;;-145.63;52.40;39133.75;5010796;28;20053;-65
2023/09/16 01:33:38;;;;;;;15.27;13.65;;;;;;;-145.63;52.19;39141.59;5002492;28;20298;-65
2023/09/16 01:36:14;;;;;;;16.88;13.57;;;;;;;-145.63;51.70;39147.44;5029008;28;20326;-65
2023/09/16 01:38:43;;;;;;;15.73;14.00;;;;;;;-145.63;52.01;39118.13;5019983;28;20034;-64
2023/09/16 01:41:10;;;;;;;16.13;14.10;;;;;;;-145.63;51.59;39120.06;5007830;28;20033;-63
2023/09/16 01:43:37;;;;;;;19.27;15.90;;;;;;;-145.63;52.02;39122.03;5023102;28;20030;-64
2023/09/16 01:46:03;;;;;;;16.05;13.90;;;;;;;-145.63;51.85;39149.41;5022550;28;20018;-64
2023/09/16 01:48:29;;;;;;;17.48;14.77;;;;;;;-145.63;52.04;39063.34;5033030;28;20207;-65
2023/09/16 01:50:54;;;;;;;16.73;14.20;;;;;;;-145.63;52.10;39153.31;5018153;28;20027;-64
2023/09/16 01:53:20;;;;;;;17.48;15.63;;;;;;;-145.63;51.82;39137.69;5003842;28;20033;-64
2023/09/16 01:55:46;;;;;;;19.02;14.57;;;;;;;-145.63;51.66;39133.75;5021994;28;20084;-65
2023/09/16 01:58:11;;;;;;;15.02;13.43;;;;;;;-145.63;51.71;39106.38;5022845;28;20026;-65
2023/09/16 02:00:37;;;;;;;18.73;15.77;;;;;;;-145.63;51.94;39147.44;5012444;28;20192;-65
2023/09/16 02:03:03;;;;;;;16.35;14.57;;;;;;;-145.63;52.14;39088.78;5008974;28;20044;-64
2023/09/16 02:05:29;;;;;;;16.13;14.02;;;;;;;-145.63;51.90;39120.06;5022663;28;20214;-64
2023/09/16 02:07:57;;;;;;;17.05;15.32;;;;;;;-145.63;52.57;39153.31;5023286;28;20030;-65
2023/09/16 02:10:22;;;;;;;15.07;13.52;;;;;;;-145.63;52.72;39118.13;5006037;28;20283;-65
2023/09/16 02:12:48;;;;;;;16.75;13.68;;;;;;;-145.63;52.35;39125.94;5015182;28;20030;-64
2023/09/16 02:15:14;;;;;;;16.85;14.23;;;;;;;-145.63;52.69;39123.97;5035141;28;20037;-65
2023/09/16 02:17:40;;;;;;;15.50;13.70;;;;;;;-145.63;52.48;39149.41;5033009;28;20037;-65
2023/09/16 02:20:10;;;;;;;16.60;14.65;;;;;;;-145.63;52.29;39088.78;5014298;28;20030;-65
2023/09/16 02:22:37;;;;;;;16.83;13.82;;;;;;;-145.63;52.63;39118.13;5021328;28;20283;-63
2023/09/16 02:25:03;;;;;;;15.48;13.63;;;;;;;-145.63;52.57;39118.13;5008812;28;20042;-64
2023/09/16 02:27:30;;;;;;;16.02;14.30;;;;;;;-145.63;52.42;39161.13;5021135;28;20046;-64
2023/09/16 02:29:55;;;;;;;16.55;14.85;;;;;;;-145.63;52.48;39217.84;5017904;28;20042;-63
2023/09/16 02:32:21;;;;;;;18.23;15.45;;;;;;;-145.63;52.37;39122.03;5003055;28;20026;-65
2023/09/16 02:34:47;;;;;;;17.40;15.57;;;;;;;-145.63;52.56;39110.28;5025105;28;20033;-64
2023/09/16 02:37:12;;;;;;;20.13;16.80;;;;;;;-145.63;52.65;39096.59;5011447;28;20030;-64
2023/09/16 02:39:38;;;;;;;18.95;16.20;;;;;;;-145.63;52.70;39131.81;5016718;28;20225;-64
2023/09/16 02:42:04;;;;;;;16.20;14.18;;;;;;;-145.63;53.10;39165.06;5026222;28;20202;-66
2023/09/16 02:44:30;;;;;;;13.65;12.15;;;;;;;-145.63;53.54;39145.50;5023780;28;20030;-65
2023/09/16 02:46:56;;;;;;;11.25;10.05;;;;;;;-145.63;53.92;39170.91;5034653;28;20025;-65
2023/09/16 02:49:22;;;;;;;10.90;9.80;;;;;;;-145.63;54.03;39153.31;5044220;28;20040;-65
2023/09/16 02:51:48;;;;;;;10.82;9.63;;;;;;;-145.63;54.21;39145.50;5033965;28;20030;-65
2023/09/16 02:54:14;;;;;;;10.57;8.85;;;;;;;-145.63;53.99;39139.63;5024466;28;20357;-65
2023/09/16 02:56:40;;;;;;;9.88;8.52;;;;;;;-145.63;54.77;39157.22;5025780;28;20054;-66
2023/09/16 02:59:06;;;;;;;10.38;8.50;;;;;;;-145.63;54.52;39147.44;5024545;28;20045;-65
2023/09/16 03:01:32;;;;;;;10.27;9.18;;;;;;;-145.63;54.97;39145.50;5008279;28;20081;-66
2023/09/16 03:03:58;;;;;;;10.48;8.50;;;;;;;-145.63;55.19;39137.69;5022757;28;20218;-65
2023/09/16 03:06:26;;;;;;;7.85;7.05;;;;;;;-145.63;55.24;39217.84;5027481;28;20033;-64
2023/09/16 03:08:52;;;;;;;8.32;7.53;;;;;;;-145.63;55.67;39163.09;5008562;28;20078;-64
2023/09/16 03:11:18;;;;;;;9.95;7.18;;;;;;;-145.63;55.76;39157.22;5025432;28;20085;-64
2023/09/16 03:13:43;;;;;;;8.43;7.60;;;;;;;-145.63;55.98;39149.41;5006699;28;20052;-65
2023/09/16 03:16:20;;;;;;;8.00;7.30;;;;;;;-145.63;55.76;39200.25;5004761;28;20031;-65
2023/09/16 03:18:48;;;;;;;7.63;6.85;;;;;;;-145.63;55.71;39170.91;5010880;28;20061;-64
2023/09/16 03:21:15;;;;;;;7.15;6.43;;;;;;;-145.63;55.66;39151.38;5018688;28;20269;-64
2023/09/16 03:23:42;;;;;;;6.43;5.82;;;;;;;-145.63;56.14;39153.31;5030844;28;20033;-65
2023/09/16 03:26:09;;;;;;;5.28;4.78;;;;;;;-145.63;56.42;39131.81;5032837;28;20206;-64
2023/09/16 03:28:35;;;;;;;5.70;4.65;;;;;;;-145.63;55.97;39165.06;5027320;28;20038;-64
2023/09/16 03:31:01;;;;;;;5.28;4.45;;;;;;;-145.63;56.15;39165.06;5012230;28;20030;-65
2023/09/16 03:33:26;;;;;;;5.13;4.63;;;;;;;-145.63;55.83;39174.84;5005610;28;20030;-64
2023/09/16 03:35:52;;;;;;;4.47;3.83;;;;;;;-145.63;55.99;39165.06;5014228;28;20034;-64
2023/09/16 03:38:18;;;;;;;3.78;3.22;;;;;;;-145.63;56.47;39194.38;5025121;28;20030;-64
2023/09/16 03:40:44;;;;;;;2.70;2.50;;;;;;;-145.63;56.16;39159.19;5006597;28;20101;-64
2023/09/16 03:43:09;;;;;;;2.35;2.15;;;;;;;-145.63;56.10;39170.91;5013061;28;20053;-65
2023/09/16 03:45:35;;;;;;;2.72;1.90;;;;;;;-145.63;55.99;39180.69;5017363;28;20088;-64
2023/09/16 03:48:01;;;;;;;2.28;2.08;;;;;;;-145.63;56.20;39206.13;5032157;28;20045;-64
2023/09/16 03:50:27;;;;;;;3.40;1.85;;;;;;;-145.63;55.92;39161.13;5005044;28;20038;-65
2023/09/16 03:52:53;;;;;;;2.15;1.90;;;;;;;-145.63;56.03;39184.59;5005095;28;20050;-64
2023/09/16 03:55:19;;;;;;;1.98;1.75;;;;;;;-145.63;56.04;39002.72;5020334;28;20022;-66
2023/09/16 03:57:45;;;;;;;1.63;1.50;;;;;;;-145.63;56.08;39198.31;5013929;28;20048;-65
2023/09/16 04:00:11;;;;;;;1.50;1.40;;;;;;;-145.63;56.02;39188.53;5010851;28;20026;-64
2023/09/16 04:02:40;;;;;;;1.70;1.50;;;;;;;-145.63;56.11;39163.09;5023350;28;20028;-65
2023/09/16 04:05:06;;;;;;;1.65;1.55;;;;;;;-145.63;56.27;39174.84;5004008;28;20366;-65
2023/09/16 04:07:32;;;;;;;1.80;1.13;;;;;;;-145.63;55.92;39194.38;5025153;28;20089;-64
2023/09/16 04:09:57;;;;;;;2.72;2.38;;;;;;;-145.63;55.92;39192.44;5024542;28;20033;-64
2023/09/16 04:12:23;;;;;;;1.40;1.13;;;;;;;-145.63;55.95;39153.31;5016986;28;20080;-62
2023/09/16 04:14:49;;;;;;;1.73;1.08;;;;;;;-145.63;55.86;39176.78;5012479;28;20034;-65
2023/09/16 04:17:14;;;;;;;1.30;1.20;;;;;;;-145.63;56.01;39170.91;5023709;28;20022;-64
2023/09/16 04:19:40;;;;;;;1.52;1.42;;;;;;;-145.63;55.78;39194.38;5012590;28;20044;-65
2023/09/16 04:22:05;;;;;;;1.48;1.30;;;;;;;-145.63;56.57;39206.13;5015741;28;20033;-65
2023/09/16 04:24:31;;;;;;;2.35;1.20;;;;;;;-145.63;56.01;39208.06;5015403;28;20033;-65
2023/09/16 04:26:56;;;;;;;1.88;1.20;;;;;;;-145.63;56.33;39213.94;5018724;28;20042;-65
2023/09/16 04:29:22;;;;;;;1.58;1.48;;;;;;;-145.63;56.47;39196.34;5004357;28;20026;-66
2023/09/16 04:31:48;;;;;;;1.50;1.40;;;;;;;-145.63;56.38;39188.53;5023082;28;20050;-63
2023/09/16 04:34:14;;;;;;;3.03;0.80;;;;;;;-145.63;56.14;39210.03;5009859;28;20029;-64
2023/09/16 04:36:40;;;;;;;1.90;1.58;;;;;;;-145.63;56.64;39229.59;5012695;28;20021;-65
2023/09/16 04:39:06;;;;;;;2.92;1.40;;;;;;;-145.63;56.82;39213.94;5020252;28;20049;-64
2023/09/16 04:41:31;;;;;;;1.35;1.00;;;;;;;-145.63;56.69;39194.38;5015969;28;20030;-65
2023/09/16 04:43:57;;;;;;;1.23;1.13;;;;;;;-145.63;56.37;39219.81;5011611;28;20027;-66
2023/09/16 04:46:23;;;;;;;0.85;0.85;;;;;;;-145.63;56.16;39196.34;5022674;28;20029;-65
2023/09/16 04:48:49;;;;;;;1.75;1.15;;;;;;;-145.63;56.27;39206.13;5032771;28;20037;-65
2023/09/16 04:51:15;;;;;;;0.80;0.80;;;;;;;-145.63;56.45;39188.53;5026198;28;20036;-64
2023/09/16 04:53:41;;;;;;;2.25;1.25;;;;;;;-145.63;56.24;39212.00;5023487;28;20034;-65
2023/09/16 04:56:09;;;;;;;1.75;1.08;;;;;;;-145.63;55.97;39206.13;5023440;28;20033;-66
2023/09/16 04:58:35;;;;;;;1.48;1.38;;;;;;;-145.63;56.11;39196.34;5023555;28;20030;-66
2023/09/16 05:01:03;;;;;;;0.88;0.88;;;;;;;-145.63;56.05;39208.06;5015058;28;20029;-65
2023/09/16 05:03:29;;;;;;;2.80;1.25;;;;;;;-145.63;55.92;39219.81;5035450;28;20022;-65
2023/09/16 05:05:55;;;;;;;2.00;1.25;;;;;;;-145.63;56.38;39157.22;5025804;28;20349;-65
2023/09/16 05:08:20;;;;;;;1.08;0.98;;;;;;;-145.63;55.80;39194.38;5023389;28;20033;-66
2023/09/16 05:10:55;;;;;;;1.00;1.00;;;;;;;-145.63;55.62;39172.88;5013550;28;20030;-65
2023/09/16 05:13:21;;;;;;;2.85;1.02;;;;;;;-145.63;55.22;39200.25;5028186;28;20022;-65
2023/09/16 05:15:50;;;;;;;1.50;1.10;;;;;;;-145.63;55.03;39186.56;5014113;28;20038;-65
2023/09/16 05:18:16;;;;;;;0.95;0.90;;;;;;;-145.63;55.45;39172.88;5026671;28;20057;-65
2023/09/16 05:20:42;;;;;;;1.65;1.13;;;;;;;-145.63;55.28;39217.84;5007168;28;20076;-64
2023/09/16 05:23:08;;;;;;;1.02;0.90;;;;;;;-145.63;55.41;39204.16;5031420;28;20056;-64
2023/09/16 05:25:34;;;;;;;1.17;0.95;;;;;;;-145.63;55.08;39196.34;5026157;28;20050;-66
2023/09/16 05:27:59;;;;;;;1.20;1.10;;;;;;;-145.63;55.60;39213.94;5011458;28;20200;-65
2023/09/16 05:30:25;;;;;;;1.25;0.90;;;;;;;-145.63;56.03;39172.88;5011868;28;20033;-66
2023/09/16 05:32:50;;;;;;;1.50;1.10;;;;;;;-145.63;56.23;39235.47;5040432;28;20033;-64
2023/09/16 05:35:16;;;;;;;1.50;1.33;;;;;;;-145.63;56.49;39243.28;5020046;28;20022;-65
2023/09/16 05:37:42;;;;;;;1.52;1.27;;;;;;;-145.63;56.30;39200.25;5012657;28;20026;-64
2023/09/16 05:40:08;;;;;;;2.92;1.33;;;;;;;-145.63;56.17;39204.16;5005563;28;20033;-64
2023/09/16 05:42:34;;;;;;;1.45;1.10;;;;;;;-145.63;56.26;39198.31;5013182;28;20211;-64
2023/09/16 05:45:02;;;;;;;1.40;1.30;;;;;;;-145.63;56.47;39202.22;5006295;28;20050;-65
2023/09/16 05:47:30;;;;;;;1.83;1.35;;;;;;;-145.63;55.65;39219.81;5022606;28;20210;-65
2023/09/16 05:49:57;;;;;;;2.13;1.25;;;;;;;-145.63;55.36;39213.94;5002625;28;20163;-64
2023/09/16 05:52:22;;;;;;;1.20;1.10;;;;;;;-145.63;55.54;39221.78;5022962;28;20089;-64
2023/09/16 05:54:48;;;;;;;1.15;1.00;;;;;;;-145.63;54.88;39180.69;5015504;28;20033;-64
2023/09/16 05:57:14;;;;;;;2.97;1.15;;;;;;;-145.63;54.97;39212.00;5018510;28;20338;-65
2023/09/16 05:59:39;;;;;;;1.13;0.95;;;;;;;-145.63;54.82;39184.59;5017227;28;20030;-65
2023/09/16 06:02:05;;;;;;;1.25;1.10;;;;;;;-145.63;54.61;39204.16;5021718;28;20032;-65
2023/09/16 06:04:31;;;;;;;2.15;1.13;;;;;;;-145.63;54.30;39215.91;5006916;28;20130;-64
2023/09/16 06:06:56;;;;;;;0.93;0.90;;;;;;;-145.63;54.10;39202.22;5014055;28;20037;-64
2023/09/16 06:09:22;;;;;;;1.60;1.00;;;;;;;-145.63;54.05;39237.41;5018605;28;20037;-65
2023/09/16 06:11:48;;;;;;;0.90;0.90;;;;;;;-145.63;54.19;39200.25;5030572;28;20048;-64
2023/09/16 06:14:13;;;;;;;1.73;0.88;;;;;;;-145.63;54.11;39213.94;5026290;28;20061;-64
2023/09/16 06:16:39;;;;;;;1.08;0.85;;;;;;;-145.63;53.94;39219.81;5017358;28;20133;-63
2023/09/16 06:19:04;;;;;;;1.23;0.90;;;;;;;-145.63;53.93;39241.31;5019238;28;20060;-64
2023/09/16 06:21:30;;;;;;;1.27;0.80;;;;;;;-145.63;53.74;39188.53;5013799;28;20030;-65
2023/09/16 06:23:57;;;;;;;1.17;0.90;;;;;;;-145.63;53.81;39188.53;5017453;28;20032;-64
2023/09/16 06:26:23;;;;;;;1.60;0.90;;;;;;;-145.63;53.21;38234.25;5013375;28;20092;-65
2023/09/16 06:28:49;;;;;;;1.20;0.90;;;;;;;-145.63;53.13;39180.69;5007592;28;20034;-63
2023/09/16 06:31:15;;;;;;;0.93;0.70;;;;;;;-145.63;53.38;39210.03;5019626;28;20048;-64
2023/09/16 06:33:40;;;;;;;1.42;0.80;;;;;;;-145.63;53.15;39200.25;5010387;28;20022;-65
2023/09/16 06:36:06;;;;;;;2.45;1.60;;;;;;;-145.63;53.48;39210.03;5010286;28;20029;-64
2023/09/16 06:38:32;;;;;;;1.65;1.30;;;;;;;-145.63;53.11;39186.56;5026307;28;20034;-65
2023/09/16 06:40:58;;;;;;;3.35;1.67;;;;;;;-145.63;53.73;39204.16;5008717;28;20277;-64
2023/09/16 06:43:23;;;;;;;16.80;13.93;;;;;;;-145.63;53.89;39204.16;5026025;28;20040;-63
2023/09/16 06:45:49;;;;;;;6.25;5.22;;;;;;;-145.63;53.61;39198.31;5016022;28;20088;-65
2023/09/16 06:48:16;;;;;;;1.80;1.48;;;;;;;-145.63;54.17;39215.91;5011032;28;20249;-64
2023/09/16 06:50:42;;;;;;;4.88;1.58;;;;;;;-145.63;53.72;39262.84;5029002;28;20376;-64
2023/09/16 06:53:08;;;;;;;1.98;1.45;;;;;;;-145.63;54.12;39251.09;5027162;28;20021;-64
2023/09/16 06:55:34;;;;;;;4.07;1.92;;;;;;;-145.63;54.34;39227.63;5024956;28;20057;-66
2023/09/16 06:58:04;;;;;;;2.95;1.70;;;;;;;-145.63;54.25;39262.84;5023741;28;20206;-64
2023/09/16 07:00:30;;;;;;;3.22;1.50;;;;;;;-145.63;54.88;39219.81;5021347;28;20330;-64
2023/09/16 07:02:57;;;;;;;1.95;1.50;;;;;;;-145.63;53.86;39223.72;5016737;28;20060;-68
2023/09/16 07:05:23;;;;;;;2.53;1.23;;;;;;;-145.63;53.82;39182.66;5013714;28;20037;-65
2023/09/16 07:07:49;;;;;;;2.65;1.30;;;;;;;-145.63;53.35;39202.22;5007738;28;20022;-65
2023/09/16 07:10:14;;;;;;;1.45;1.10;;;;;;;-145.63;52.54;39192.44;5017945;28;20037;-66
2023/09/16 07:12:40;;;;;;;1.13;0.90;;;;;;;-145.63;52.00;39194.38;5025291;28;20026;-64
2023/09/16 07:15:06;;;;;;;1.90;1.15;;;;;;;-145.63;51.94;39184.59;5035106;28;20198;-64
2023/09/16 07:17:33;;;;;;;1.85;1.52;;;;;;;-145.63;52.04;39200.25;5040707;28;20067;-64
2023/09/16 07:19:59;;;;;;;1.88;1.00;;;;;;;-145.63;51.24;39190.47;5011506;28;20061;-63
2023/09/16 07:22:25;;;;;;;1.73;1.27;;;;;;;-145.63;51.41;39221.78;5010893;28;20027;-65
2023/09/16 07:24:51;;;;;;;2.53;1.20;;;;;;;-145.63;50.74;39215.91;5014931;28;20345;-65
2023/09/16 07:27:17;;;;;;;3.50;1.00;;;;;;;-145.63;50.48;39194.38;5025608;28;20029;-65
2023/09/16 07:29:43;;;;;;;1.88;1.00;;;;;;;-145.63;50.77;39192.44;5024609;28;20101;-64
2023/09/16 07:32:09;;;;;;;2.25;1.25;;;;;;;-145.63;50.47;39219.81;5036839;28;20021;-66
2023/09/16 07:34:35;;;;;;;1.10;1.00;;;;;;;-145.63;49.98;39243.28;5025827;28;20027;-64
2023/09/16 07:37:01;;;;;;;1.50;1.20;;;;;;;-145.63;50.32;39202.22;5016605;28;20030;-65
2023/09/16 07:39:27;;;;;;;2.72;1.10;;;;;;;-145.63;50.38;39206.13;5014492;28;20032;-64
2023/09/16 07:41:53;;;;;;;1.35;1.15;;;;;;;-145.63;50.43;39200.25;5014848;28;20022;-64
2023/09/16 07:44:18;;;;;;;2.13;1.20;;;;;;;-145.63;50.17;39198.31;5005353;28;20026;-65
2023/09/16 07:46:45;;;;;;;3.15;1.48;;;;;;;-145.63;50.17;39206.13;5005243;28;20034;-64
2023/09/16 07:49:11;;;;;;;1.83;1.33;;;;;;;-145.63;50.28;39200.25;5016046;28;20026;-64
2023/09/16 07:51:39;;;;;;;2.00;1.10;;;;;;;-145.63;50.11;39212.00;5028556;28;20369;-65
2023/09/16 07:54:08;;;;;;;1.55;1.10;;;;;;;-145.63;49.89;39178.75;5024729;28;20033;-64
2023/09/16 07:56:34;;;;;;;1.90;1.05;;;;;;;-145.63;50.17;39212.00;5024564;28;20026;-64
2023/09/16 07:59:00;;;;;;;2.22;1.00;;;;;;;-145.63;49.86;39188.53;5005697;28;20033;-63
2023/09/16 08:01:26;;;;;;;1.30;1.10;;;;;;;-145.63;49.33;39192.44;5004784;28;20030;-64
2023/09/16 08:03:52;;;;;;;1.88;1.15;;;;;;;-145.63;49.12;39165.06;5014239;28;20105;-63
2023/09/16 08:06:17;;;;;;;1.20;1.10;;;;;;;-145.63;49.54;39186.56;5019540;28;20076;-64
2023/09/16 08:08:43;;;;;;;2.28;0.95;;;;;;;-145.63;49.12;39165.06;5004653;28;20045;-64
2023/09/16 08:11:09;;;;;;;1.10;1.00;;;;;;;-145.63;49.04;39170.91;5019574;28;20273;-63
2023/09/16 08:13:34;;;;;;;1.00;1.00;;;;;;;-145.63;48.79;39172.88;5028671;28;20256;-65
2023/09/16 08:16:00;;;;;;;1.65;1.02;;;;;;;-145.63;48.55;39174.84;5024238;28;20032;-63
2023/09/16 08:18:26;;;;;;;0.95;0.95;;;;;;;-145.63;48.56;39174.84;5021093;28;20214;-63
2023/09/16 08:20:51;;;;;;;1.02;1.00;;;;;;;-145.63;48.53;39151.38;5010051;28;20034;-64
2023/09/16 08:23:17;;;;;;;1.92;0.80;;;;;;;-145.63;48.28;39172.88;5008913;28;20041;-65
2023/09/16 08:25:45;;;;;;;1.38;1.25;;;;;;;-145.63;48.46;39178.75;5020353;28;20097;-64
2023/09/16 08:28:11;;;;;;;2.15;1.00;;;;;;;-145.63;48.06;39192.44;5012688;28;20066;-65
2023/09/16 08:30:36;;;;;;;2.78;1.50;;;;;;;-145.63;48.31;39168.97;5008890;28;20036;-66
2023/09/16 08:33:02;;;;;;;3.63;1.50;;;;;;;-145.63;48.12;39168.97;5016537;28;20034;-65
2023/09/16 08:35:28;;;;;;;4.95;1.50;;;;;;;-145.63;48.30;39176.78;5023678;28;20022;-65
2023/09/16 08:37:58;;;;;;;4.45;1.50;;;;;;;-145.63;48.48;39182.66;5005571;28;20049;-65
2023/09/16 08:40:25;;;;;;;1.60;1.10;;;;;;;-145.63;47.72;39168.97;5017236;28;20301;-64
2023/09/16 08:43:30;;;;;;;3.33;1.73;;;;;;;-145.63;48.21;39161.13;5022619;28;20199;-65
2023/09/16 08:46:04;;;;;;;2.90;1.90;;;;;;;-145.63;48.42;39147.44;5018447;28;20037;-65
2023/09/16 08:48:34;;;;;;;4.35;1.15;;;;;;;-145.63;47.55;39217.84;5011516;28;20033;-65
2023/09/16 08:51:05;;;;;;;1.60;1.50;;;;;;;-145.63;47.27;39165.06;5016838;28;20194;-65
2023/09/16 08:53:35;;;;;;;2.90;1.63;;;;;;;-145.63;47.03;39176.78;5023002;28;20030;-65
2023/09/16 08:56:02;;;;;;;1.70;1.02;;;;;;;-145.63;47.52;39163.09;5019499;28;20320;-65
2023/09/16 08:58:28;;;;;;;4.22;1.10;;;;;;;-145.63;47.45;38946.03;5016445;28;20307;-64
2023/09/16 09:00:54;;;;;;;1.42;1.10;;;;;;;-145.63;46.64;39167.00;5014249;28;20077;-66
2023/09/16 09:03:21;;;;;;;2.28;1.10;;;;;;;-145.63;47.03;38728.97;5008106;28;20037;-64
2023/09/16 09:05:48;;;;;;;1.65;1.10;;;;;;;-145.63;47.20;39141.59;5020110;28;20243;-64
2023/09/16 09:08:13;;;;;;;2.35;1.25;;;;;;;-145.63;46.92;39118.13;5012780;28;20033;-63
2023/09/16 09:10:42;;;;;;;1.13;1.05;;;;;;;-145.63;46.40;39157.22;5021696;28;20310;-65
2023/09/16 09:13:12;;;;;;;4.70;1.23;;;;;;;-145.63;47.09;39161.13;5031990;28;20064;-66
2023/09/16 09:15:40;;;;;;;2.28;0.98;;;;;;;-145.63;46.92;39200.25;5023062;28;20030;-67
2023/09/16 09:18:06;;;;;;;3.47;1.20;;;;;;;-145.63;46.12;39145.50;5018111;28;20030;-64
2023/09/16 09:20:32;;;;;;;1.42;1.30;;;;;;;-145.63;46.38;39141.59;5011239;28;20167;-66
2023/09/16 09:22:59;;;;;;;1.38;0.98;;;;;;;-145.63;46.31;39200.25;5020863;28;20033;-64
2023/09/16 09:25:27;;;;;;;2.45;1.05;;;;;;;-145.63;46.27;39198.31;5015540;28;20089;-66
2023/09/16 09:27:57;;;;;;;3.08;1.10;;;;;;;-145.63;45.96;39196.34;5017089;28;20032;-66
2023/09/16 09:30:29;;;;;;;3.70;1.27;;;;;;;-145.63;45.61;39155.28;5019861;28;20031;-65
2023/09/16 09:32:56;;;;;;;2.17;1.00;;;;;;;-145.63;45.74;39147.44;5015041;28;20059;-65
2023/09/16 09:35:27;;;;;;;2.75;1.20;;;;;;;-145.63;45.98;39159.19;5023118;28;20068;-65
2023/09/16 09:37:52;;;;;;;1.20;1.10;;;;;;;-145.63;45.82;39110.28;5022527;28;20093;-65
2023/09/16 09:40:19;;;;;;;1.55;1.10;;;;;;;-145.63;45.62;39151.38;5022522;28;20290;-66
2023/09/16 09:42:47;;;;;;;2.90;1.10;;;;;;;-145.63;45.78;38545.16;5022264;28;20044;-66
2023/09/16 09:45:15;;;;;;;2.13;1.00;;;;;;;-145.63;45.84;39153.31;5025325;28;20072;-65
2023/09/16 09:47:42;;;;;;;2.85;1.27;;;;;;;-145.63;46.12;39172.88;5026369;28;20024;-65
2023/09/16 09:50:13;;;;;;;1.90;1.08;;;;;;;-145.63;45.82;39165.06;5024404;28;20049;-65
2023/09/16 09:52:39;;;;;;;1.73;1.10;;;;;;;-145.63;46.10;39145.50;5026881;28;20433;-64
2023/09/16 09:55:05;;;;;;;2.17;1.10;;;;;;;-145.63;46.50;39151.38;5026376;28;20057;-64
2023/09/16 09:57:31;;;;;;;1.67;1.05;;;;;;;-145.63;46.02;39104.44;5026267;28;20132;-64
2023/09/16 09:59:58;;;;;;;2.60;1.13;;;;;;;-145.63;45.79;39137.69;5024135;28;20025;-64
2023/09/16 10:02:27;;;;;;;3.05;1.17;;;;;;;-145.63;45.34;39137.69;5024523;28;20034;-64
2023/09/16 10:04:57;;;;;;;1.42;1.33;;;;;;;-145.63;45.87;39114.22;5025334;28;20038;-64
2023/09/16 10:07:25;;;;;;;5.57;1.45;;;;;;;-145.63;45.41;39129.84;5022697;28;20025;-64
2023/09/16 10:09:52;;;;;;;3.78;1.70;;;;;;;-145.63;45.49;39198.31;5025524;28;20014;-65
2023/09/16 10:12:18;;;;;;;2.70;1.10;;;;;;;-145.63;44.84;39139.63;5026628;28;20018;-64
2023/09/16 10:14:45;;;;;;;1.30;1.10;;;;;;;-145.63;44.79;39122.03;5034670;28;20021;-63
2023/09/16 10:17:12;;;;;;;5.15;2.08;;;;;;;-145.63;44.82;39122.03;5045128;28;20036;-64
2023/09/16 10:19:38;;;;;;;1.42;1.33;;;;;;;-145.63;45.46;39172.88;5009326;28;20056;-66
2023/09/16 10:22:04;;;;;;;2.72;1.40;;;;;;;-145.63;45.28;39182.66;5009117;28;20238;-64
2023/09/16 10:24:29;;;;;;;1.35;1.10;;;;;;;-145.63;45.39;39184.59;5020772;28;20030;-64
2023/09/16 10:26:59;;;;;;;2.90;1.20;;;;;;;-145.63;45.14;39174.84;5006771;28;20113;-65
2023/09/16 10:29:29;;;;;;;3.17;1.30;;;;;;;-145.63;45.40;39161.13;5026299;28;20325;-64
2023/09/16 10:31:55;;;;;;;4.57;1.85;;;;;;;-145.63;45.41;39202.22;5036246;28;20041;-64
2023/09/16 10:34:21;;;;;;;1.83;1.73;;;;;;;-145.63;45.60;39176.78;5013787;28;20041;-65
2023/09/16 10:36:48;;;;;;;2.17;1.40;;;;;;;-145.63;45.36;39221.78;5016566;28;20045;-65
2023/09/16 10:39:15;;;;;;;1.83;1.60;;;;;;;-145.63;45.45;39178.75;5023890;28;20082;-64
2023/09/16 10:41:44;;;;;;;1.50;1.25;;;;;;;-145.63;45.32;39188.53;5014111;28;20032;-65
2023/09/16 10:44:12;;;;;;;3.53;1.55;;;;;;;-145.63;45.81;39184.59;5026169;28;20025;-64
2023/09/16 10:46:38;;;;;;;2.50;1.30;;;;;;;-145.63;45.43;39159.19;5011920;28;20026;-65
2023/09/16 10:49:04;;;;;;;1.35;1.25;;;;;;;-145.63;45.16;39172.88;5015841;28;20034;-66
2023/09/16 10:51:38;;;;;;;1.98;1.65;;;;;;;-145.63;45.69;39180.69;5028873;28;20092;-66
2023/09/16 10:54:13;;;;;;;2.65;1.35;;;;;;;-145.63;44.85;39133.75;5020237;28;20034;-65
2023/09/16 10:56:43;;;;;;;1.65;1.30;;;;;;;-145.63;44.97;39178.75;5023681;28;20029;-64
2023/09/16 10:59:13;;;;;;;2.22;1.70;;;;;;;-145.63;44.69;39239.38;5022911;28;20073;-64
2023/09/16 11:02:19;;;;;;;2.55;1.30;;;;;;;-145.63;44.53;39157.22;5025634;28;20030;-65
2023/09/16 11:04:45;;;;;;;2.35;1.50;;;;;;;-145.63;44.16;39157.22;5009435;28;20064;-64
2023/09/16 11:07:12;;;;;;;1.75;1.45;;;;;;;-145.63;44.06;39157.22;5014898;28;20038;-65
2023/09/16 11:09:39;;;;;;;1.70;1.13;;;;;;;-145.63;44.41;39172.88;5021654;28;20077;-64